← Previous April 15, 2024 10:28 AM Next →

FTUS43 KFGF 121225 AAA
TAFDVL
TAF AMD
KDVL 121225Z 1212/1312 VRB03KT P6SM SKC
      TEMPO 1212/1214 1/4SM FG
     FM122100 15007KT P6SM FEW250
     FM130600 14013KT P6SM SCT150
     FM131100 16013KT P6SM BKN100 WS015/22030KT=